MDPPMDST

Guest
Details From MDPP - Puerto Plata Gregorio Luperon Intl
To MDST - Santiago Cibao Intl
Flight Number -
Tags generated
Created
Modified
Stats Distance 21 nm / 39 km
Max Altitude 0 ft / 0 m
Waypoints 3
Social Downloads 1
Likes 0
Share VATSIM

Download

Looking for another format? Having issues loading an existing format? Contact us
Advertisement - Login to hide

Notes

Basic altitude profile: - Ascent Rate: 2500ft/min - Ascent Speed: 250kts - Cruise Altitude: 35000ft - Cruise Speed: 420kts - Descent Rate: 1500ft/min - Descent Speed: 250kts Options: - Use NATs: yes - Use PACOTS: yes - Use low airways: yes - Use high airways: yes

Route

MDPP SGO MDST

ID Type Via Altitude Latitude Longitude Leg Dist Tot Dist Heading (true) Name
O MDPP APT - 0 ft / 0 m 19.75790˚ -70.57003˚ - 0 nm - Puerto Plata Gregorio Luperon Intl
SGO VOR - 0 ft / 0 m 19.40722˚ -70.60389˚ 21 nm 21 nm 185° / 185° SANTIAGO VOR-DME
O MDST APT - 0 ft / 0 m 19.40609˚ -70.60469˚ 0 nm 21 nm 214° / 214° Santiago Cibao Intl

Altitude Profile

Advertisement - Login to hide

MDPP

Details ICAO MDPP (POP)
Name Puerto Plata Gregorio Luperon Intl
Region Dominican Republic
Timezone America/Santo_Domingo (UTC-4.0)
Stats Elevation 15 ft / 5 m (AMSL)
Location 19.757900° -70.570035°
Runways 1
Magnetic Variation 11.228° W

METAR

MDPP 150000Z 00000KT 9999 FEW018 26/23 Q1015

Decode

TAF

Not found

Departure Runways

ID Width Length Bearing (true) Bearing (mag) Surface Threshold Offset Overrun Length
08 151 ft / 46 m 10,101 ft / 3,079 m 72.95° 84.18° Asphalt 0 ft / 0 m 0 ft / 0 m
26 151 ft / 46 m 10,101 ft / 3,079 m 252.95° 264.18° Asphalt 0 ft / 0 m 0 ft / 0 m

MDST

Details ICAO MDST (STI)
Name Santiago Cibao Intl
Region Dominican Republic
Timezone America/Santo_Domingo (UTC-4.0)
Stats Elevation 563 ft / 172 m (AMSL)
Location 19.406091° -70.604689°
Runways 1
Magnetic Variation 11.171° W

METAR

MDST 150100Z 15006KT 9999 FEW018 25/23 Q1016

Decode

TAF

Not found

Destination Runways

ID Width Length Bearing (true) Bearing (mag) Surface Threshold Offset Overrun Length
11 148 ft / 45 m 8,619 ft / 2,627 m 103.07° 114.24° Asphalt 0 ft / 0 m 200 ft / 61 m
29 148 ft / 45 m 8,619 ft / 2,627 m 283.08° 294.25° Asphalt 0 ft / 0 m 200 ft / 61 m

Approach Navaids

Runway Type Ident Frequency Range Bearing (true) Bearing (mag) Slope Elevation
11 Localiser EXP 109.30 MHz 18 nm / 33 km 103.11° 114.28° - 565 ft / 172 m (AMSL)
11 Glidescope EXP 109.30 MHz 10 nm / 19 km 103.08° 114.25° 2.80° 565 ft / 172 m (AMSL)
11 DME EXP 109.30 MHz 18 nm / 33 km - - - 563 ft / 172 m (AMSL)